sensor_id;sensor_type;location;lat;lon;timestamp;P1;durP1;ratioP1;P2;durP2;ratioP2
62572;SDS011;48626;51.678;5.806;2024-03-02T00:01:17;3.88;;;2.00;;
62572;SDS011;48626;51.678;5.806;2024-03-02T00:03:43;3.15;;;2.00;;
62572;SDS011;48626;51.678;5.806;2024-03-02T00:06:09;3.63;;;2.13;;
62572;SDS011;48626;51.678;5.806;2024-03-02T00:08:35;3.47;;;2.00;;
62572;SDS011;48626;51.678;5.806;2024-03-02T00:11:01;4.35;;;2.20;;
62572;SDS011;48626;51.678;5.806;2024-03-02T00:13:29;4.18;;;2.20;;
62572;SDS011;48626;51.678;5.806;2024-03-02T00:15:57;3.25;;;1.83;;
62572;SDS011;48626;51.678;5.806;2024-03-02T00:18:33;2.85;;;1.90;;
62572;SDS011;48626;51.678;5.806;2024-03-02T00:21:00;5.57;;;2.33;;
62572;SDS011;48626;51.678;5.806;2024-03-02T00:23:29;3.85;;;2.10;;
62572;SDS011;48626;51.678;5.806;2024-03-02T00:25:58;4.22;;;2.00;;
62572;SDS011;48626;51.678;5.806;2024-03-02T00:30:55;4.90;;;1.98;;
62572;SDS011;48626;51.678;5.806;2024-03-02T00:33:36;2.80;;;1.85;;
62572;SDS011;48626;51.678;5.806;2024-03-02T00:36:12;3.55;;;1.98;;
62572;SDS011;48626;51.678;5.806;2024-03-02T00:38:49;8.32;;;2.05;;
62572;SDS011;48626;51.678;5.806;2024-03-02T00:41:23;3.45;;;1.80;;
62572;SDS011;48626;51.678;5.806;2024-03-02T00:46:33;4.28;;;2.10;;
62572;SDS011;48626;51.678;5.806;2024-03-02T00:49:00;4.25;;;1.95;;
62572;SDS011;48626;51.678;5.806;2024-03-02T00:51:29;4.63;;;2.13;;
62572;SDS011;48626;51.678;5.806;2024-03-02T00:53:58;5.82;;;2.08;;
62572;SDS011;48626;51.678;5.806;2024-03-02T00:56:25;4.60;;;2.00;;
62572;SDS011;48626;51.678;5.806;2024-03-02T00:58:51;3.67;;;1.90;;
62572;SDS011;48626;51.678;5.806;2024-03-02T01:01:17;2.97;;;1.42;;
62572;SDS011;48626;51.678;5.806;2024-03-02T01:03:44;3.20;;;1.70;;
62572;SDS011;48626;51.678;5.806;2024-03-02T01:06:10;3.45;;;1.40;;
62572;SDS011;48626;51.678;5.806;2024-03-02T01:08:36;1.92;;;1.25;;
62572;SDS011;48626;51.678;5.806;2024-03-02T01:11:03;0.98;;;0.88;;
62572;SDS011;48626;51.678;5.806;2024-03-02T01:13:30;1.95;;;1.00;;
62572;SDS011;48626;51.678;5.806;2024-03-02T01:15:56;0.73;;;0.73;;
62572;SDS011;48626;51.678;5.806;2024-03-02T01:18:25;1.55;;;1.15;;
62572;SDS011;48626;51.678;5.806;2024-03-02T01:20:51;2.28;;;1.20;;
62572;SDS011;48626;51.678;5.806;2024-03-02T01:23:20;0.85;;;0.85;;
62572;SDS011;48626;51.678;5.806;2024-03-02T01:25:46;1.20;;;1.10;;
62572;SDS011;48626;51.678;5.806;2024-03-02T01:28:12;1.13;;;1.00;;
62572;SDS011;48626;51.678;5.806;2024-03-02T01:30:39;1.02;;;0.90;;
62572;SDS011;48626;51.678;5.806;2024-03-02T01:33:04;1.40;;;1.10;;
62572;SDS011;48626;51.678;5.806;2024-03-02T01:35:30;1.23;;;0.95;;
62572;SDS011;48626;51.678;5.806;2024-03-02T01:37:56;1.33;;;0.80;;
62572;SDS011;48626;51.678;5.806;2024-03-02T01:40:22;0.68;;;0.68;;
62572;SDS011;48626;51.678;5.806;2024-03-02T01:42:51;0.70;;;0.70;;
62572;SDS011;48626;51.678;5.806;2024-03-02T01:45:19;1.45;;;0.90;;
62572;SDS011;48626;51.678;5.806;2024-03-02T01:47:44;1.10;;;1.00;;
62572;SDS011;48626;51.678;5.806;2024-03-02T01:50:13;1.17;;;1.13;;
62572;SDS011;48626;51.678;5.806;2024-03-02T01:52:39;1.13;;;1.02;;
62572;SDS011;48626;51.678;5.806;2024-03-02T01:55:05;0.70;;;0.70;;
62572;SDS011;48626;51.678;5.806;2024-03-02T01:57:32;0.90;;;0.90;;
62572;SDS011;48626;51.678;5.806;2024-03-02T01:59:58;1.35;;;0.95;;
62572;SDS011;48626;51.678;5.806;2024-03-02T02:02:25;1.75;;;1.17;;
62572;SDS011;48626;51.678;5.806;2024-03-02T02:04:50;1.15;;;1.05;;
62572;SDS011;48626;51.678;5.806;2024-03-02T02:07:16;1.77;;;0.88;;
62572;SDS011;48626;51.678;5.806;2024-03-02T02:09:42;1.20;;;0.90;;
62572;SDS011;48626;51.678;5.806;2024-03-02T02:12:09;1.17;;;1.08;;
62572;SDS011;48626;51.678;5.806;2024-03-02T02:14:35;5.07;;;0.95;;
62572;SDS011;48626;51.678;5.806;2024-03-02T02:17:02;0.80;;;0.73;;
62572;SDS011;48626;51.678;5.806;2024-03-02T02:19:27;0.88;;;0.88;;
62572;SDS011;48626;51.678;5.806;2024-03-02T02:21:53;1.25;;;0.80;;
62572;SDS011;48626;51.678;5.806;2024-03-02T02:24:20;3.42;;;1.13;;
62572;SDS011;48626;51.678;5.806;2024-03-02T02:26:45;2.10;;;1.10;;
62572;SDS011;48626;51.678;5.806;2024-03-02T02:29:11;1.40;;;0.82;;
62572;SDS011;48626;51.678;5.806;2024-03-02T02:31:40;0.80;;;0.80;;
62572;SDS011;48626;51.678;5.806;2024-03-02T02:34:07;0.55;;;0.55;;
62572;SDS011;48626;51.678;5.806;2024-03-02T02:36:34;0.95;;;0.80;;
62572;SDS011;48626;51.678;5.806;2024-03-02T02:39:03;0.85;;;0.60;;
62572;SDS011;48626;51.678;5.806;2024-03-02T02:41:30;1.80;;;0.90;;
62572;SDS011;48626;51.678;5.806;2024-03-02T02:43:56;0.73;;;0.63;;
62572;SDS011;48626;51.678;5.806;2024-03-02T02:46:21;2.67;;;0.90;;
62572;SDS011;48626;51.678;5.806;2024-03-02T02:48:47;2.25;;;0.80;;
62572;SDS011;48626;51.678;5.806;2024-03-02T02:51:13;2.17;;;0.90;;
62572;SDS011;48626;51.678;5.806;2024-03-02T02:53:38;1.50;;;1.05;;
62572;SDS011;48626;51.678;5.806;2024-03-02T02:56:07;2.88;;;0.90;;
62572;SDS011;48626;51.678;5.806;2024-03-02T02:58:32;1.10;;;0.77;;
62572;SDS011;48626;51.678;5.806;2024-03-02T03:00:58;1.48;;;0.82;;
62572;SDS011;48626;51.678;5.806;2024-03-02T03:03:24;1.52;;;0.90;;
62572;SDS011;48626;51.678;5.806;2024-03-02T03:05:49;5.28;;;1.13;;
62572;SDS011;48626;51.678;5.806;2024-03-02T03:08:15;0.80;;;0.80;;
62572;SDS011;48626;51.678;5.806;2024-03-02T03:10:43;0.82;;;0.77;;
62572;SDS011;48626;51.678;5.806;2024-03-02T03:13:09;4.60;;;1.02;;
62572;SDS011;48626;51.678;5.806;2024-03-02T03:15:35;1.63;;;0.98;;
62572;SDS011;48626;51.678;5.806;2024-03-02T03:18:01;1.10;;;0.80;;
62572;SDS011;48626;51.678;5.806;2024-03-02T03:20:29;2.72;;;1.05;;
62572;SDS011;48626;51.678;5.806;2024-03-02T03:22:55;0.88;;;0.68;;
62572;SDS011;48626;51.678;5.806;2024-03-02T03:25:21;4.05;;;0.93;;
62572;SDS011;48626;51.678;5.806;2024-03-02T03:27:47;1.13;;;0.88;;
62572;SDS011;48626;51.678;5.806;2024-03-02T03:30:12;1.25;;;1.00;;
62572;SDS011;48626;51.678;5.806;2024-03-02T03:32:38;1.67;;;1.00;;
62572;SDS011;48626;51.678;5.806;2024-03-02T03:35:04;0.82;;;0.82;;
62572;SDS011;48626;51.678;5.806;2024-03-02T03:37:31;0.90;;;0.88;;
62572;SDS011;48626;51.678;5.806;2024-03-02T03:39:58;1.50;;;1.00;;
62572;SDS011;48626;51.678;5.806;2024-03-02T03:42:24;1.00;;;0.90;;
62572;SDS011;48626;51.678;5.806;2024-03-02T03:44:50;1.75;;;0.98;;
62572;SDS011;48626;51.678;5.806;2024-03-02T03:47:15;1.38;;;1.00;;
62572;SDS011;48626;51.678;5.806;2024-03-02T03:49:41;0.80;;;0.75;;
62572;SDS011;48626;51.678;5.806;2024-03-02T03:52:06;2.10;;;1.30;;
62572;SDS011;48626;51.678;5.806;2024-03-02T03:54:32;1.35;;;0.93;;
62572;SDS011;48626;51.678;5.806;2024-03-02T03:56:58;3.55;;;1.23;;
62572;SDS011;48626;51.678;5.806;2024-03-02T03:59:23;1.10;;;1.00;;
62572;SDS011;48626;51.678;5.806;2024-03-02T04:01:49;1.00;;;0.80;;
62572;SDS011;48626;51.678;5.806;2024-03-02T04:04:14;3.85;;;1.23;;
62572;SDS011;48626;51.678;5.806;2024-03-02T04:06:40;1.38;;;1.05;;
62572;SDS011;48626;51.678;5.806;2024-03-02T04:09:06;1.30;;;1.10;;
62572;SDS011;48626;51.678;5.806;2024-03-02T04:11:35;2.92;;;1.55;;
62572;SDS011;48626;51.678;5.806;2024-03-02T04:14:00;1.13;;;1.00;;
62572;SDS011;48626;51.678;5.806;2024-03-02T04:16:26;1.08;;;1.00;;
62572;SDS011;48626;51.678;5.806;2024-03-02T04:18:52;1.08;;;0.98;;
62572;SDS011;48626;51.678;5.806;2024-03-02T04:21:17;1.05;;;0.98;;
62572;SDS011;48626;51.678;5.806;2024-03-02T04:23:43;0.93;;;0.70;;
62572;SDS011;48626;51.678;5.806;2024-03-02T04:26:08;1.45;;;1.02;;
62572;SDS011;48626;51.678;5.806;2024-03-02T04:28:34;1.83;;;1.20;;
62572;SDS011;48626;51.678;5.806;2024-03-02T04:31:00;1.25;;;1.17;;
62572;SDS011;48626;51.678;5.806;2024-03-02T04:33:25;2.13;;;1.33;;
62572;SDS011;48626;51.678;5.806;2024-03-02T04:35:51;0.90;;;0.90;;
62572;SDS011;48626;51.678;5.806;2024-03-02T04:38:16;1.27;;;0.98;;
62572;SDS011;48626;51.678;5.806;2024-03-02T04:40:42;0.93;;;0.93;;
62572;SDS011;48626;51.678;5.806;2024-03-02T04:43:08;0.95;;;0.88;;
62572;SDS011;48626;51.678;5.806;2024-03-02T04:45:34;1.10;;;1.00;;
62572;SDS011;48626;51.678;5.806;2024-03-02T04:48:01;1.75;;;0.90;;
62572;SDS011;48626;51.678;5.806;2024-03-02T04:50:26;1.17;;;1.08;;
62572;SDS011;48626;51.678;5.806;2024-03-02T04:52:52;1.63;;;1.30;;
62572;SDS011;48626;51.678;5.806;2024-03-02T04:55:17;1.20;;;1.10;;
62572;SDS011;48626;51.678;5.806;2024-03-02T04:57:52;2.67;;;1.00;;
62572;SDS011;48626;51.678;5.806;2024-03-02T05:00:20;1.85;;;1.17;;
62572;SDS011;48626;51.678;5.806;2024-03-02T05:02:46;2.53;;;1.38;;
62572;SDS011;48626;51.678;5.806;2024-03-02T05:05:11;2.97;;;1.35;;
62572;SDS011;48626;51.678;5.806;2024-03-02T05:07:37;1.13;;;0.73;;
62572;SDS011;48626;51.678;5.806;2024-03-02T05:10:03;2.45;;;1.50;;
62572;SDS011;48626;51.678;5.806;2024-03-02T05:12:29;0.77;;;0.77;;
62572;SDS011;48626;51.678;5.806;2024-03-02T05:15:10;1.58;;;1.20;;
62572;SDS011;48626;51.678;5.806;2024-03-02T05:17:37;0.85;;;0.75;;
62572;SDS011;48626;51.678;5.806;2024-03-02T05:20:03;1.77;;;1.55;;
62572;SDS011;48626;51.678;5.806;2024-03-02T05:22:30;1.48;;;1.02;;
62572;SDS011;48626;51.678;5.806;2024-03-02T05:24:56;1.02;;;1.02;;
62572;SDS011;48626;51.678;5.806;2024-03-02T05:27:21;2.92;;;1.15;;
62572;SDS011;48626;51.678;5.806;2024-03-02T05:29:47;1.75;;;1.05;;
62572;SDS011;48626;51.678;5.806;2024-03-02T05:32:13;3.63;;;1.10;;
62572;SDS011;48626;51.678;5.806;2024-03-02T05:34:38;0.82;;;0.80;;
62572;SDS011;48626;51.678;5.806;2024-03-02T05:37:04;4.22;;;1.05;;
62572;SDS011;48626;51.678;5.806;2024-03-02T05:39:30;1.58;;;1.00;;
62572;SDS011;48626;51.678;5.806;2024-03-02T05:41:55;1.35;;;0.63;;
62572;SDS011;48626;51.678;5.806;2024-03-02T05:44:21;3.22;;;1.30;;
62572;SDS011;48626;51.678;5.806;2024-03-02T05:46:47;1.42;;;0.75;;
62572;SDS011;48626;51.678;5.806;2024-03-02T05:49:13;2.83;;;1.17;;
62572;SDS011;48626;51.678;5.806;2024-03-02T05:51:38;1.17;;;0.98;;
62572;SDS011;48626;51.678;5.806;2024-03-02T05:54:04;1.25;;;1.05;;
62572;SDS011;48626;51.678;5.806;2024-03-02T05:56:30;0.77;;;0.70;;
62572;SDS011;48626;51.678;5.806;2024-03-02T05:58:55;1.08;;;0.80;;
62572;SDS011;48626;51.678;5.806;2024-03-02T06:01:41;4.63;;;1.25;;
62572;SDS011;48626;51.678;5.806;2024-03-02T06:04:08;1.10;;;0.85;;
62572;SDS011;48626;51.678;5.806;2024-03-02T06:06:34;1.58;;;1.17;;
62572;SDS011;48626;51.678;5.806;2024-03-02T06:09:00;0.90;;;0.90;;
62572;SDS011;48626;51.678;5.806;2024-03-02T06:11:27;2.55;;;1.00;;
62572;SDS011;48626;51.678;5.806;2024-03-02T06:13:53;3.78;;;1.30;;
62572;SDS011;48626;51.678;5.806;2024-03-02T06:16:18;2.05;;;1.13;;
62572;SDS011;48626;51.678;5.806;2024-03-02T06:18:44;1.88;;;1.70;;
62572;SDS011;48626;51.678;5.806;2024-03-02T06:21:10;3.03;;;1.23;;
62572;SDS011;48626;51.678;5.806;2024-03-02T06:23:35;1.75;;;1.25;;
62572;SDS011;48626;51.678;5.806;2024-03-02T06:26:01;3.50;;;1.10;;
62572;SDS011;48626;51.678;5.806;2024-03-02T06:28:27;1.67;;;1.25;;
62572;SDS011;48626;51.678;5.806;2024-03-02T06:30:53;1.27;;;1.17;;
62572;SDS011;48626;51.678;5.806;2024-03-02T06:33:19;1.38;;;1.27;;
62572;SDS011;48626;51.678;5.806;2024-03-02T06:35:45;2.40;;;1.30;;
62572;SDS011;48626;51.678;5.806;2024-03-02T06:38:10;1.15;;;1.00;;
62572;SDS011;48626;51.678;5.806;2024-03-02T06:40:36;2.83;;;1.13;;
62572;SDS011;48626;51.678;5.806;2024-03-02T06:43:04;3.00;;;1.08;;
62572;SDS011;48626;51.678;5.806;2024-03-02T06:45:30;2.45;;;1.25;;
62572;SDS011;48626;51.678;5.806;2024-03-02T06:47:55;5.57;;;1.38;;
62572;SDS011;48626;51.678;5.806;2024-03-02T06:50:22;1.60;;;1.33;;
62572;SDS011;48626;51.678;5.806;2024-03-02T06:52:47;3.25;;;1.20;;
62572;SDS011;48626;51.678;5.806;2024-03-02T06:55:13;4.38;;;1.70;;
62572;SDS011;48626;51.678;5.806;2024-03-02T06:57:38;1.52;;;1.30;;
62572;SDS011;48626;51.678;5.806;2024-03-02T07:00:04;3.25;;;1.30;;
62572;SDS011;48626;51.678;5.806;2024-03-02T07:02:33;3.03;;;1.55;;
62572;SDS011;48626;51.678;5.806;2024-03-02T07:04:59;2.63;;;1.58;;
62572;SDS011;48626;51.678;5.806;2024-03-02T07:07:25;1.92;;;1.48;;
62572;SDS011;48626;51.678;5.806;2024-03-02T07:09:51;2.50;;;1.15;;
62572;SDS011;48626;51.678;5.806;2024-03-02T07:12:16;1.85;;;1.25;;
62572;SDS011;48626;51.678;5.806;2024-03-02T07:14:43;2.10;;;1.33;;
62572;SDS011;48626;51.678;5.806;2024-03-02T07:17:27;3.05;;;1.70;;
62572;SDS011;48626;51.678;5.806;2024-03-02T07:19:53;2.20;;;1.50;;
62572;SDS011;48626;51.678;5.806;2024-03-02T07:22:19;2.00;;;1.27;;
62572;SDS011;48626;51.678;5.806;2024-03-02T07:24:45;1.23;;;1.05;;
62572;SDS011;48626;51.678;5.806;2024-03-02T07:27:11;3.63;;;1.40;;
62572;SDS011;48626;51.678;5.806;2024-03-02T07:29:37;2.60;;;1.38;;
62572;SDS011;48626;51.678;5.806;2024-03-02T07:32:04;1.33;;;1.23;;
62572;SDS011;48626;51.678;5.806;2024-03-02T07:34:30;2.28;;;1.25;;
62572;SDS011;48626;51.678;5.806;2024-03-02T07:36:56;3.10;;;1.55;;
62572;SDS011;48626;51.678;5.806;2024-03-02T07:39:22;1.80;;;1.20;;
62572;SDS011;48626;51.678;5.806;2024-03-02T07:41:48;3.50;;;1.60;;
62572;SDS011;48626;51.678;5.806;2024-03-02T07:44:14;2.15;;;1.40;;
62572;SDS011;48626;51.678;5.806;2024-03-02T07:46:43;2.90;;;1.55;;
62572;SDS011;48626;51.678;5.806;2024-03-02T07:49:09;1.73;;;1.40;;
62572;SDS011;48626;51.678;5.806;2024-03-02T07:51:35;3.47;;;1.73;;
62572;SDS011;48626;51.678;5.806;2024-03-02T07:54:01;2.10;;;1.38;;
62572;SDS011;48626;51.678;5.806;2024-03-02T07:56:27;2.58;;;1.30;;
62572;SDS011;48626;51.678;5.806;2024-03-02T07:58:53;4.97;;;1.48;;
62572;SDS011;48626;51.678;5.806;2024-03-02T08:01:19;2.75;;;1.27;;
62572;SDS011;48626;51.678;5.806;2024-03-02T08:03:44;4.85;;;1.30;;
62572;SDS011;48626;51.678;5.806;2024-03-02T08:06:15;7.03;;;1.42;;
62572;SDS011;48626;51.678;5.806;2024-03-02T08:08:46;6.50;;;1.58;;
62572;SDS011;48626;51.678;5.806;2024-03-02T08:11:12;2.15;;;1.30;;
62572;SDS011;48626;51.678;5.806;2024-03-02T08:13:38;3.47;;;1.42;;
62572;SDS011;48626;51.678;5.806;2024-03-02T08:16:03;3.40;;;1.33;;
62572;SDS011;48626;51.678;5.806;2024-03-02T08:18:32;6.25;;;1.88;;
62572;SDS011;48626;51.678;5.806;2024-03-02T08:20:58;2.78;;;1.27;;
62572;SDS011;48626;51.678;5.806;2024-03-02T08:23:24;3.78;;;2.00;;
62572;SDS011;48626;51.678;5.806;2024-03-02T08:25:50;6.05;;;1.45;;
62572;SDS011;48626;51.678;5.806;2024-03-02T08:28:18;5.18;;;1.30;;
62572;SDS011;48626;51.678;5.806;2024-03-02T08:30:45;4.50;;;1.65;;
62572;SDS011;48626;51.678;5.806;2024-03-02T08:33:10;4.10;;;1.65;;
62572;SDS011;48626;51.678;5.806;2024-03-02T08:35:36;5.75;;;1.80;;
62572;SDS011;48626;51.678;5.806;2024-03-02T08:38:02;6.70;;;1.60;;
62572;SDS011;48626;51.678;5.806;2024-03-02T08:40:29;8.32;;;1.60;;
62572;SDS011;48626;51.678;5.806;2024-03-02T08:42:55;2.25;;;1.50;;
62572;SDS011;48626;51.678;5.806;2024-03-02T08:45:21;3.95;;;1.75;;
62572;SDS011;48626;51.678;5.806;2024-03-02T08:47:46;5.97;;;1.80;;
62572;SDS011;48626;51.678;5.806;2024-03-02T08:50:13;5.32;;;1.67;;
62572;SDS011;48626;51.678;5.806;2024-03-02T08:52:38;5.80;;;1.80;;
62572;SDS011;48626;51.678;5.806;2024-03-02T08:55:05;5.10;;;1.40;;
62572;SDS011;48626;51.678;5.806;2024-03-02T08:57:32;2.47;;;1.50;;
62572;SDS011;48626;51.678;5.806;2024-03-02T08:59:58;5.15;;;2.03;;
62572;SDS011;48626;51.678;5.806;2024-03-02T09:02:24;4.75;;;1.52;;
62572;SDS011;48626;51.678;5.806;2024-03-02T09:04:50;2.67;;;1.88;;
62572;SDS011;48626;51.678;5.806;2024-03-02T09:07:15;7.00;;;2.22;;
62572;SDS011;48626;51.678;5.806;2024-03-02T09:09:41;6.68;;;3.33;;
62572;SDS011;48626;51.678;5.806;2024-03-02T09:12:06;7.63;;;3.53;;
62572;SDS011;48626;51.678;5.806;2024-03-02T09:14:32;5.65;;;2.60;;
62572;SDS011;48626;51.678;5.806;2024-03-02T09:16:59;5.72;;;2.30;;
62572;SDS011;48626;51.678;5.806;2024-03-02T09:19:25;5.72;;;2.08;;
62572;SDS011;48626;51.678;5.806;2024-03-02T09:21:51;9.80;;;4.15;;
62572;SDS011;48626;51.678;5.806;2024-03-02T09:24:16;5.25;;;3.38;;
62572;SDS011;48626;51.678;5.806;2024-03-02T09:26:42;5.82;;;2.92;;
62572;SDS011;48626;51.678;5.806;2024-03-02T09:29:08;6.95;;;2.58;;
62572;SDS011;48626;51.678;5.806;2024-03-02T09:31:38;3.67;;;1.75;;
62572;SDS011;48626;51.678;5.806;2024-03-02T09:34:05;8.70;;;2.45;;
62572;SDS011;48626;51.678;5.806;2024-03-02T09:36:31;11.38;;;2.15;;
62572;SDS011;48626;51.678;5.806;2024-03-02T09:38:57;5.05;;;1.77;;
62572;SDS011;48626;51.678;5.806;2024-03-02T09:41:22;5.00;;;2.30;;
62572;SDS011;48626;51.678;5.806;2024-03-02T09:43:48;4.32;;;1.83;;
62572;SDS011;48626;51.678;5.806;2024-03-02T09:46:14;4.15;;;1.80;;
62572;SDS011;48626;51.678;5.806;2024-03-02T09:48:40;8.57;;;1.98;;
62572;SDS011;48626;51.678;5.806;2024-03-02T09:51:06;6.93;;;2.10;;
62572;SDS011;48626;51.678;5.806;2024-03-02T09:53:33;10.10;;;3.00;;
62572;SDS011;48626;51.678;5.806;2024-03-02T09:55:59;6.20;;;2.80;;
62572;SDS011;48626;51.678;5.806;2024-03-02T09:58:25;5.03;;;1.55;;
62572;SDS011;48626;51.678;5.806;2024-03-02T10:00:52;5.55;;;2.10;;
62572;SDS011;48626;51.678;5.806;2024-03-02T10:03:18;4.72;;;2.10;;
62572;SDS011;48626;51.678;5.806;2024-03-02T10:05:44;7.47;;;2.80;;
62572;SDS011;48626;51.678;5.806;2024-03-02T10:08:09;6.97;;;2.08;;
62572;SDS011;48626;51.678;5.806;2024-03-02T10:10:36;4.95;;;1.92;;
62572;SDS011;48626;51.678;5.806;2024-03-02T10:13:06;6.32;;;1.92;;
62572;SDS011;48626;51.678;5.806;2024-03-02T10:15:32;4.13;;;1.83;;
62572;SDS011;48626;51.678;5.806;2024-03-02T10:17:58;5.15;;;2.00;;
62572;SDS011;48626;51.678;5.806;2024-03-02T10:20:24;3.50;;;1.58;;
62572;SDS011;48626;51.678;5.806;2024-03-02T10:22:53;3.40;;;1.90;;
62572;SDS011;48626;51.678;5.806;2024-03-02T10:25:31;4.13;;;2.00;;
62572;SDS011;48626;51.678;5.806;2024-03-02T10:27:58;4.57;;;1.70;;
62572;SDS011;48626;51.678;5.806;2024-03-02T10:30:27;4.68;;;2.38;;
62572;SDS011;48626;51.678;5.806;2024-03-02T10:32:53;5.03;;;1.90;;
62572;SDS011;48626;51.678;5.806;2024-03-02T10:35:20;4.07;;;1.98;;
62572;SDS011;48626;51.678;5.806;2024-03-02T10:37:50;4.45;;;1.83;;
62572;SDS011;48626;51.678;5.806;2024-03-02T10:40:17;4.50;;;1.77;;
62572;SDS011;48626;51.678;5.806;2024-03-02T10:42:44;4.80;;;2.10;;
62572;SDS011;48626;51.678;5.806;2024-03-02T10:45:11;3.10;;;1.75;;
62572;SDS011;48626;51.678;5.806;2024-03-02T10:47:39;4.93;;;1.98;;
62572;SDS011;48626;51.678;5.806;2024-03-02T10:50:06;6.75;;;2.47;;
62572;SDS011;48626;51.678;5.806;2024-03-02T10:52:36;3.10;;;1.75;;
62572;SDS011;48626;51.678;5.806;2024-03-02T10:55:04;2.83;;;1.50;;
62572;SDS011;48626;51.678;5.806;2024-03-02T11:00:16;5.00;;;2.08;;
62572;SDS011;48626;51.678;5.806;2024-03-02T11:02:55;5.30;;;1.88;;
62572;SDS011;48626;51.678;5.806;2024-03-02T11:05:29;5.15;;;1.98;;
62572;SDS011;48626;51.678;5.806;2024-03-02T11:08:02;6.82;;;2.13;;
62572;SDS011;48626;51.678;5.806;2024-03-02T11:11:06;11.18;;;2.50;;
62572;SDS011;48626;51.678;5.806;2024-03-02T11:13:31;6.43;;;1.90;;
62572;SDS011;48626;51.678;5.806;2024-03-02T11:15:59;3.95;;;1.98;;
62572;SDS011;48626;51.678;5.806;2024-03-02T11:18:35;4.63;;;2.20;;
62572;SDS011;48626;51.678;5.806;2024-03-02T11:21:01;7.00;;;2.25;;
62572;SDS011;48626;51.678;5.806;2024-03-02T11:23:34;4.38;;;1.80;;
62572;SDS011;48626;51.678;5.806;2024-03-02T11:28:45;5.18;;;2.00;;
62572;SDS011;48626;51.678;5.806;2024-03-02T11:31:11;3.75;;;1.70;;
62572;SDS011;48626;51.678;5.806;2024-03-02T11:33:36;2.70;;;1.52;;
62572;SDS011;48626;51.678;5.806;2024-03-02T11:36:02;6.88;;;1.95;;
62572;SDS011;48626;51.678;5.806;2024-03-02T11:38:29;7.00;;;1.80;;
62572;SDS011;48626;51.678;5.806;2024-03-02T11:40:59;4.18;;;1.45;;
62572;SDS011;48626;51.678;5.806;2024-03-02T11:43:28;3.55;;;1.80;;
62572;SDS011;48626;51.678;5.806;2024-03-02T11:45:58;3.42;;;1.80;;
62572;SDS011;48626;51.678;5.806;2024-03-02T11:48:31;4.97;;;2.22;;
62572;SDS011;48626;51.678;5.806;2024-03-02T11:50:58;5.32;;;2.10;;
62572;SDS011;48626;51.678;5.806;2024-03-02T11:53:26;6.10;;;2.60;;
62572;SDS011;48626;51.678;5.806;2024-03-02T11:55:54;5.85;;;2.47;;
62572;SDS011;48626;51.678;5.806;2024-03-02T11:58:21;5.05;;;2.35;;
62572;SDS011;48626;51.678;5.806;2024-03-02T12:00:58;5.13;;;2.15;;
62572;SDS011;48626;51.678;5.806;2024-03-02T12:03:24;5.55;;;2.00;;
62572;SDS011;48626;51.678;5.806;2024-03-02T12:05:50;6.40;;;2.40;;
62572;SDS011;48626;51.678;5.806;2024-03-02T12:08:20;7.53;;;2.20;;
62572;SDS011;48626;51.678;5.806;2024-03-02T12:10:56;7.28;;;1.90;;
62572;SDS011;48626;51.678;5.806;2024-03-02T12:13:25;7.17;;;2.17;;
62572;SDS011;48626;51.678;5.806;2024-03-02T12:15:52;4.25;;;2.10;;
62572;SDS011;48626;51.678;5.806;2024-03-02T12:18:22;3.92;;;1.90;;
62572;SDS011;48626;51.678;5.806;2024-03-02T12:20:49;4.68;;;2.00;;
62572;SDS011;48626;51.678;5.806;2024-03-02T12:23:22;5.25;;;2.00;;
62572;SDS011;48626;51.678;5.806;2024-03-02T12:25:47;5.65;;;2.00;;
62572;SDS011;48626;51.678;5.806;2024-03-02T12:28:14;4.15;;;1.83;;
62572;SDS011;48626;51.678;5.806;2024-03-02T12:30:39;3.10;;;1.95;;
62572;SDS011;48626;51.678;5.806;2024-03-02T12:33:05;4.75;;;2.22;;
62572;SDS011;48626;51.678;5.806;2024-03-02T12:35:31;4.50;;;2.00;;
62572;SDS011;48626;51.678;5.806;2024-03-02T12:37:56;5.80;;;2.40;;
62572;SDS011;48626;51.678;5.806;2024-03-02T12:40:23;5.15;;;2.33;;
62572;SDS011;48626;51.678;5.806;2024-03-02T12:42:49;3.58;;;2.00;;
62572;SDS011;48626;51.678;5.806;2024-03-02T12:45:16;5.43;;;2.00;;
62572;SDS011;48626;51.678;5.806;2024-03-02T12:47:48;4.50;;;1.85;;
62572;SDS011;48626;51.678;5.806;2024-03-02T12:50:14;5.85;;;1.90;;
62572;SDS011;48626;51.678;5.806;2024-03-02T12:52:40;3.80;;;1.75;;
62572;SDS011;48626;51.678;5.806;2024-03-02T12:55:06;4.72;;;1.77;;
62572;SDS011;48626;51.678;5.806;2024-03-02T12:57:32;6.32;;;2.10;;
62572;SDS011;48626;51.678;5.806;2024-03-02T13:00:05;9.40;;;2.53;;
62572;SDS011;48626;51.678;5.806;2024-03-02T13:02:35;4.13;;;1.92;;
62572;SDS011;48626;51.678;5.806;2024-03-02T13:05:01;5.20;;;2.00;;
62572;SDS011;48626;51.678;5.806;2024-03-02T13:07:31;7.50;;;1.90;;
62572;SDS011;48626;51.678;5.806;2024-03-02T13:09:58;5.80;;;1.83;;
62572;SDS011;48626;51.678;5.806;2024-03-02T13:12:25;4.00;;;1.90;;
62572;SDS011;48626;51.678;5.806;2024-03-02T13:14:53;4.88;;;2.08;;
62572;SDS011;48626;51.678;5.806;2024-03-02T13:17:19;4.47;;;1.80;;
62572;SDS011;48626;51.678;5.806;2024-03-02T13:19:52;4.65;;;2.25;;
62572;SDS011;48626;51.678;5.806;2024-03-02T13:22:22;4.63;;;2.20;;
62572;SDS011;48626;51.678;5.806;2024-03-02T13:24:48;5.35;;;1.73;;
62572;SDS011;48626;51.678;5.806;2024-03-02T13:27:14;5.65;;;1.92;;
62572;SDS011;48626;51.678;5.806;2024-03-02T13:29:41;6.45;;;2.20;;
62572;SDS011;48626;51.678;5.806;2024-03-02T13:32:08;5.70;;;2.00;;
62572;SDS011;48626;51.678;5.806;2024-03-02T13:34:37;5.63;;;2.00;;
62572;SDS011;48626;51.678;5.806;2024-03-02T13:37:03;4.03;;;1.70;;
62572;SDS011;48626;51.678;5.806;2024-03-02T13:39:30;6.32;;;1.80;;
62572;SDS011;48626;51.678;5.806;2024-03-02T13:41:59;4.82;;;1.77;;
62572;SDS011;48626;51.678;5.806;2024-03-02T13:44:33;6.93;;;2.30;;
62572;SDS011;48626;51.678;5.806;2024-03-02T13:46:59;7.85;;;2.25;;
62572;SDS011;48626;51.678;5.806;2024-03-02T13:49:25;4.93;;;2.00;;
62572;SDS011;48626;51.678;5.806;2024-03-02T13:51:59;7.35;;;2.15;;
62572;SDS011;48626;51.678;5.806;2024-03-02T13:54:26;4.55;;;1.88;;
62572;SDS011;48626;51.678;5.806;2024-03-02T13:56:51;6.70;;;2.08;;
62572;SDS011;48626;51.678;5.806;2024-03-02T13:59:17;4.63;;;1.98;;
62572;SDS011;48626;51.678;5.806;2024-03-02T14:01:44;3.78;;;2.08;;
62572;SDS011;48626;51.678;5.806;2024-03-02T14:04:09;4.05;;;1.45;;
62572;SDS011;48626;51.678;5.806;2024-03-02T14:06:35;5.05;;;1.63;;
62572;SDS011;48626;51.678;5.806;2024-03-02T14:09:01;2.13;;;1.40;;
62572;SDS011;48626;51.678;5.806;2024-03-02T14:11:26;2.67;;;1.33;;
62572;SDS011;48626;51.678;5.806;2024-03-02T14:13:52;3.67;;;1.83;;
62572;SDS011;48626;51.678;5.806;2024-03-02T14:16:19;3.63;;;2.00;;
62572;SDS011;48626;51.678;5.806;2024-03-02T14:18:45;5.30;;;1.73;;
62572;SDS011;48626;51.678;5.806;2024-03-02T14:21:11;5.85;;;1.80;;
62572;SDS011;48626;51.678;5.806;2024-03-02T14:23:37;4.38;;;1.42;;
62572;SDS011;48626;51.678;5.806;2024-03-02T14:26:02;5.75;;;1.80;;
62572;SDS011;48626;51.678;5.806;2024-03-02T14:28:28;3.58;;;1.73;;
62572;SDS011;48626;51.678;5.806;2024-03-02T14:30:54;3.33;;;1.67;;
62572;SDS011;48626;51.678;5.806;2024-03-02T14:33:19;2.97;;;1.50;;
62572;SDS011;48626;51.678;5.806;2024-03-02T14:35:46;6.95;;;1.60;;
62572;SDS011;48626;51.678;5.806;2024-03-02T14:38:12;8.50;;;2.00;;
62572;SDS011;48626;51.678;5.806;2024-03-02T14:40:38;5.55;;;1.98;;
62572;SDS011;48626;51.678;5.806;2024-03-02T14:43:03;5.25;;;1.75;;
62572;SDS011;48626;51.678;5.806;2024-03-02T14:45:29;2.75;;;1.73;;
62572;SDS011;48626;51.678;5.806;2024-03-02T14:47:55;2.53;;;1.60;;
62572;SDS011;48626;51.678;5.806;2024-03-02T14:50:24;4.63;;;1.60;;
62572;SDS011;48626;51.678;5.806;2024-03-02T14:52:51;4.20;;;1.70;;
62572;SDS011;48626;51.678;5.806;2024-03-02T14:55:16;6.53;;;2.45;;
62572;SDS011;48626;51.678;5.806;2024-03-02T14:57:42;4.88;;;1.33;;